Time;durP1;ratioP1;P1;durP2;ratioP2;P2;SDS_P1;SDS_P2;PMS_P1;PMS_P2;Temp;Humidity;BMP_temperature;BMP_pressure;BME280_temperature;BME280_humidity;BME280_pressure;Samples;Min_cycle;Max_cycle;Signal;HPM_P1;HPM_P2
2021/12/03 00:01:04;;;;;;;16.02;2.67;;;0.40;99.90;;;;;;5053004;28;20517;-81
2021/12/03 00:03:30;;;;;;;8.07;2.63;;;0.30;99.90;;;;;;5071827;28;20110;-82
2021/12/03 00:05:57;;;;;;;8.60;1.63;;;0.40;99.90;;;;;;5071978;28;20067;-81
2021/12/03 00:08:25;;;;;;;13.52;3.28;;;0.60;99.90;;;;;;5071361;28;20060;-81
2021/12/03 00:10:56;;;;;;;5.03;1.40;;;0.60;99.90;;;;;;5070800;28;20048;-81
2021/12/03 00:13:22;;;;;;;4.57;2.25;;;0.50;99.90;;;;;;5068525;28;20470;-82
2021/12/03 00:15:48;;;;;;;8.02;1.58;;;0.40;99.90;;;;;;5061068;28;20032;-81
2021/12/03 00:18:13;;;;;;;7.13;2.20;;;0.50;99.90;;;;;;5072740;28;20499;-77
2021/12/03 00:20:39;;;;;;;6.55;2.10;;;0.60;99.90;;;;;;5076804;28;20032;-81
2021/12/03 00:23:07;;;;;;;9.60;2.47;;;0.60;99.90;;;;;;5076236;28;20060;-82
2021/12/03 00:25:34;;;;;;;5.85;1.67;;;0.60;99.90;;;;;;5069421;28;20122;-81
2021/12/03 00:27:59;;;;;;;9.07;2.88;;;0.60;99.90;;;;;;5074212;28;20068;-82
2021/12/03 00:30:26;;;;;;;16.27;4.82;;;0.60;99.90;;;;;;5060954;28;20044;-82
2021/12/03 00:32:52;;;;;;;7.68;2.55;;;0.50;99.90;;;;;;5076981;28;20087;-81
2021/12/03 00:35:19;;;;;;;8.38;2.47;;;0.70;99.90;;;;;;5071733;28;20127;-81
2021/12/03 00:37:47;;;;;;;5.47;1.67;;;0.50;99.90;;;;;;5071203;28;20139;-81
2021/12/03 00:40:16;;;;;;;8.20;2.85;;;0.50;99.90;;;;;;5070977;28;20075;-74
2021/12/03 00:42:42;;;;;;;12.18;3.88;;;0.80;99.90;;;;;;5071807;28;20595;-82
2021/12/03 00:45:11;;;;;;;13.98;4.45;;;0.60;99.90;;;;;;5053141;28;20056;-81
2021/12/03 00:47:37;;;;;;;15.93;3.08;;;0.80;99.90;;;;;;5052452;28;20475;-81
2021/12/03 00:50:05;;;;;;;9.85;3.58;;;0.90;99.90;;;;;;5068298;28;20052;-80
2021/12/03 00:52:31;;;;;;;18.63;3.75;;;0.90;99.90;;;;;;5052217;28;20082;-81
2021/12/03 00:54:56;;;;;;;8.88;2.65;;;0.80;99.90;;;;;;5070125;28;20119;-81
2021/12/03 00:57:22;;;;;;;9.27;2.10;;;0.80;99.90;;;;;;5052223;28;20078;-82
2021/12/03 00:59:48;;;;;;;10.23;2.50;;;1.00;99.90;;;;;;5070395;28;20398;-78
2021/12/03 01:02:13;;;;;;;8.40;2.72;;;0.90;99.90;;;;;;5070445;28;20048;-75
2021/12/03 01:04:39;;;;;;;8.48;2.10;;;0.90;99.90;;;;;;5069706;28;20067;-80
2021/12/03 01:07:05;;;;;;;5.40;2.00;;;0.90;99.90;;;;;;5070360;28;20051;-81
2021/12/03 01:09:31;;;;;;;7.85;2.35;;;1.10;99.90;;;;;;5069373;28;20044;-81
2021/12/03 01:11:58;;;;;;;6.38;1.67;;;1.10;99.90;;;;;;5065888;28;20049;-80
2021/12/03 01:14:24;;;;;;;8.05;3.67;;;0.90;99.90;;;;;;5067337;28;20063;-80
2021/12/03 01:16:50;;;;;;;5.30;1.92;;;1.10;99.90;;;;;;5069498;28;20032;-80
2021/12/03 01:19:16;;;;;;;7.22;2.67;;;1.20;99.90;;;;;;5069693;28;20090;-80
2021/12/03 01:21:41;;;;;;;11.02;3.20;;;1.20;99.90;;;;;;5068046;28;20456;-81
2021/12/03 01:24:08;;;;;;;9.57;3.33;;;1.10;99.90;;;;;;5069223;28;20136;-80
2021/12/03 01:26:35;;;;;;;8.50;3.05;;;1.20;99.90;;;;;;5065951;28;20518;-81
2021/12/03 01:29:02;;;;;;;13.23;3.10;;;1.20;99.90;;;;;;5070653;28;20045;-81
2021/12/03 01:31:28;;;;;;;6.93;3.33;;;1.00;99.90;;;;;;5071651;28;20047;-80
2021/12/03 01:33:54;;;;;;;9.40;2.28;;;1.20;99.90;;;;;;5072174;28;20040;-78
2021/12/03 01:36:20;;;;;;;9.38;2.28;;;1.20;99.90;;;;;;5069436;28;20094;-80
2021/12/03 01:38:45;;;;;;;7.70;3.08;;;1.00;99.90;;;;;;5069800;28;20047;-81
2021/12/03 01:41:11;;;;;;;4.85;2.17;;;1.10;99.90;;;;;;5068455;28;20040;-81
2021/12/03 01:43:38;;;;;;;10.07;2.08;;;1.10;99.90;;;;;;5069882;28;20097;-81
2021/12/03 01:46:07;;;;;;;5.55;1.77;;;1.30;99.90;;;;;;5069418;28;20486;-80
2021/12/03 01:48:34;;;;;;;13.77;1.98;;;1.10;99.90;;;;;;5069746;28;20032;-82
2021/12/03 01:51:00;;;;;;;2.72;1.15;;;1.30;99.90;;;;;;5067838;28;20166;-81
2021/12/03 01:53:30;;;;;;;6.45;2.08;;;1.30;99.90;;;;;;5067360;28;20086;-81
2021/12/03 01:56:01;;;;;;;3.90;1.17;;;1.20;99.90;;;;;;5066048;28;20047;-81
2021/12/03 01:58:27;;;;;;;6.38;1.70;;;1.30;99.90;;;;;;5067465;28;20052;-82
2021/12/03 02:00:59;;;;;;;4.18;1.20;;;1.20;99.90;;;;;;5069752;28;20039;-82
2021/12/03 02:03:28;;;;;;;7.32;1.35;;;1.40;99.90;;;;;;5067959;28;20068;-81
2021/12/03 02:05:54;;;;;;;6.07;2.13;;;1.30;99.90;;;;;;5051373;28;20444;-80
2021/12/03 02:08:20;;;;;;;8.40;3.10;;;1.40;99.90;;;;;;5066983;28;20078;-82
2021/12/03 02:10:46;;;;;;;4.55;1.25;;;1.30;99.90;;;;;;5067407;28;20531;-81
2021/12/03 02:13:13;;;;;;;1.55;1.10;;;1.20;99.90;;;;;;5067627;28;20040;-81
2021/12/03 02:15:41;;;;;;;3.60;1.30;;;1.40;99.90;;;;;;5068498;28;20041;-80
2021/12/03 02:18:07;;;;;;;7.55;2.47;;;1.30;99.90;;;;;;5065845;28;20043;-80
2021/12/03 02:20:33;;;;;;;3.65;2.03;;;1.40;99.90;;;;;;5047592;28;20695;-82
2021/12/03 02:22:59;;;;;;;5.88;1.33;;;1.40;99.90;;;;;;5051507;28;20052;-82
2021/12/03 02:25:26;;;;;;;8.60;1.55;;;1.30;99.90;;;;;;5036433;28;20044;-83
2021/12/03 02:27:57;;;;;;;4.72;1.48;;;1.50;99.90;;;;;;5070276;28;20127;-82
2021/12/03 02:30:24;;;;;;;15.43;2.13;;;1.20;99.90;;;;;;5065859;28;20850;-82
2021/12/03 02:32:51;;;;;;;3.05;1.20;;;1.30;99.90;;;;;;5069238;28;20119;-84
2021/12/03 02:35:18;;;;;;;4.82;1.77;;;1.20;99.90;;;;;;5068248;28;20041;-81
2021/12/03 02:37:44;;;;;;;5.97;1.20;;;1.30;99.90;;;;;;5068075;28;20080;-81
2021/12/03 02:40:11;;;;;;;7.63;1.85;;;1.40;99.90;;;;;;5069543;28;20087;-81
2021/12/03 02:42:37;;;;;;;3.85;2.13;;;1.20;99.90;;;;;;5047435;28;20095;-81
2021/12/03 02:45:04;;;;;;;3.28;1.50;;;1.40;99.90;;;;;;5026170;28;20080;-82
2021/12/03 02:47:30;;;;;;;2.97;1.40;;;1.40;99.90;;;;;;5051426;28;20044;-82
2021/12/03 02:49:56;;;;;;;6.10;1.80;;;1.10;99.90;;;;;;5072314;28;20064;-81
2021/12/03 02:52:22;;;;;;;6.53;2.78;;;1.30;99.90;;;;;;5070964;28;20044;-81
2021/12/03 02:54:47;;;;;;;7.45;2.20;;;1.40;99.90;;;;;;5057555;28;20833;-81
2021/12/03 02:57:13;;;;;;;4.78;2.78;;;1.20;99.90;;;;;;5072105;28;20040;-78
2021/12/03 02:59:38;;;;;;;5.22;2.78;;;1.40;99.90;;;;;;5054708;28;20079;-80
2021/12/03 03:02:04;;;;;;;7.80;2.63;;;1.20;99.90;;;;;;5054391;28;20036;-81
2021/12/03 03:04:30;;;;;;;8.77;3.70;;;1.40;99.90;;;;;;5071215;28;20128;-82
2021/12/03 03:06:56;;;;;;;9.45;2.30;;;1.40;99.90;;;;;;5073127;28;20052;-80
2021/12/03 03:09:22;;;;;;;7.47;3.08;;;1.30;99.90;;;;;;5070724;28;20049;-82
2021/12/03 03:11:48;;;;;;;9.73;2.97;;;1.30;99.90;;;;;;5069989;28;20041;-81
2021/12/03 03:14:14;;;;;;;10.52;3.45;;;1.20;99.90;;;;;;5069809;28;20178;-80
2021/12/03 03:16:40;;;;;;;13.75;4.82;;;1.50;99.90;;;;;;5072489;28;20604;-82
2021/12/03 03:19:12;;;;;;;7.82;3.20;;;1.30;99.90;;;;;;5071625;28;20046;-83
2021/12/03 03:21:39;;;;;;;9.93;4.13;;;1.40;99.90;;;;;;5072453;28;20043;-79
2021/12/03 03:24:07;;;;;;;8.23;4.65;;;1.40;99.90;;;;;;5071876;28;20052;-82
2021/12/03 03:26:35;;;;;;;16.40;5.40;;;1.20;99.90;;;;;;5076258;28;20044;-82
2021/12/03 03:29:04;;;;;;;12.50;6.68;;;1.30;99.90;;;;;;5090647;28;20059;-75
2021/12/03 03:31:30;;;;;;;11.50;7.65;;;1.20;99.90;;;;;;5086077;28;20044;-82
2021/12/03 03:33:56;;;;;;;14.15;9.20;;;1.10;99.90;;;;;;5072623;28;20041;-81
2021/12/03 03:36:22;;;;;;;24.40;11.50;;;1.10;99.90;;;;;;5077181;28;20048;-81
2021/12/03 03:38:47;;;;;;;15.57;10.77;;;1.30;99.90;;;;;;5082483;28;20121;-80
2021/12/03 03:41:13;;;;;;;16.08;11.30;;;1.30;99.90;;;;;;5083990;28;20055;-74
2021/12/03 03:43:39;;;;;;;19.20;12.25;;;1.30;99.90;;;;;;5053527;28;20055;-82
2021/12/03 03:46:05;;;;;;;19.33;12.48;;;1.30;99.90;;;;;;5073018;28;20032;-82
2021/12/03 03:48:30;;;;;;;19.92;14.27;;;1.10;99.90;;;;;;5055223;28;20070;-82
2021/12/03 03:50:56;;;;;;;20.58;13.90;;;1.10;99.90;;;;;;5072119;28;20127;-82
2021/12/03 03:53:22;;;;;;;29.10;18.00;;;1.10;99.90;;;;;;5052734;28;20478;-80
2021/12/03 03:55:48;;;;;;;28.73;17.10;;;1.40;99.90;;;;;;5070449;28;20102;-82
2021/12/03 03:58:14;;;;;;;22.63;16.55;;;1.30;99.90;;;;;;5037111;28;20483;-79
2021/12/03 04:00:42;;;;;;;23.48;16.75;;;1.30;99.90;;;;;;5069761;28;20060;-82
2021/12/03 04:03:09;;;;;;;27.08;17.42;;;1.10;99.90;;;;;;5071761;28;20394;-81
2021/12/03 04:05:35;;;;;;;26.92;18.98;;;1.30;99.90;;;;;;5070588;28;20045;-81
2021/12/03 04:08:01;;;;;;;22.27;17.45;;;1.20;99.90;;;;;;5071252;28;20067;-82
2021/12/03 04:10:27;;;;;;;29.88;19.98;;;1.20;99.90;;;;;;5069393;28;20448;-82
2021/12/03 04:12:53;;;;;;;27.63;19.33;;;1.40;99.90;;;;;;5071263;28;20044;-81
2021/12/03 04:15:19;;;;;;;27.17;19.52;;;1.30;99.90;;;;;;5052849;28;20078;-81
2021/12/03 04:17:45;;;;;;;24.05;18.15;;;1.40;99.90;;;;;;5072047;28;20090;-80
2021/12/03 04:20:13;;;;;;;30.02;19.75;;;1.20;99.90;;;;;;5052434;28;20406;-81
2021/12/03 04:22:40;;;;;;;27.30;19.15;;;1.40;99.90;;;;;;5070847;28;20048;-82
2021/12/03 04:25:09;;;;;;;29.63;19.27;;;1.30;99.90;;;;;;5070806;28;20040;-80
2021/12/03 04:27:35;;;;;;;27.10;19.38;;;1.30;99.90;;;;;;5052423;28;20075;-82
2021/12/03 04:30:01;;;;;;;32.47;18.40;;;1.50;99.90;;;;;;5070614;28;20438;-81
2021/12/03 04:32:27;;;;;;;22.75;17.23;;;1.40;99.90;;;;;;5075457;28;20037;-80
2021/12/03 04:34:54;;;;;;;23.80;17.08;;;1.40;99.90;;;;;;5072240;28;20180;-81
2021/12/03 04:37:20;;;;;;;26.85;18.70;;;1.40;99.90;;;;;;5071179;28;20530;-81
2021/12/03 04:39:46;;;;;;;32.03;20.83;;;1.40;99.90;;;;;;5072688;28;20056;-82
2021/12/03 04:42:11;;;;;;;24.42;18.52;;;1.40;99.90;;;;;;5071318;28;20506;-81
2021/12/03 04:44:37;;;;;;;26.45;17.75;;;1.20;99.90;;;;;;5072104;28;20047;-81
2021/12/03 04:47:04;;;;;;;27.13;18.90;;;1.20;99.90;;;;;;5053194;28;20051;-81
2021/12/03 04:49:30;;;;;;;34.25;18.23;;;1.20;99.90;;;;;;5054237;28;20054;-82
2021/12/03 04:51:56;;;;;;;22.38;16.73;;;1.40;99.90;;;;;;5070686;28;20111;-81
2021/12/03 04:54:22;;;;;;;29.05;17.92;;;1.40;99.90;;;;;;5053419;28;20053;-82
2021/12/03 04:56:48;;;;;;;27.08;17.98;;;1.40;99.90;;;;;;5071781;28;20536;-82
2021/12/03 04:59:14;;;;;;;24.02;17.17;;;1.20;99.90;;;;;;5052511;28;20056;-79
2021/12/03 05:01:40;;;;;;;20.92;16.20;;;1.40;99.90;;;;;;5070576;28;20461;-81
2021/12/03 05:04:06;;;;;;;24.05;17.25;;;1.20;99.90;;;;;;5052344;28;20051;-82
2021/12/03 05:06:52;;;;;;;24.92;18.02;;;1.20;99.90;;;;;;5054571;28;20045;-82
2021/12/03 05:09:17;;;;;;;26.10;16.20;;;1.40;99.90;;;;;;5070737;28;20040;-82
2021/12/03 05:11:42;;;;;;;24.75;17.33;;;1.40;99.90;;;;;;5069989;28;20037;-72
2021/12/03 05:14:08;;;;;;;23.35;16.23;;;1.30;99.90;;;;;;5069465;28;20041;-81
2021/12/03 05:16:34;;;;;;;24.25;16.55;;;1.30;99.90;;;;;;5069707;28;20116;-80
2021/12/03 05:19:00;;;;;;;23.85;16.50;;;1.30;99.90;;;;;;5071293;28;20509;-82
2021/12/03 05:21:25;;;;;;;25.92;17.13;;;1.40;99.90;;;;;;5064481;28;20032;-79
2021/12/03 05:23:51;;;;;;;23.40;16.63;;;1.20;99.90;;;;;;5043877;28;20457;-82
2021/12/03 05:26:17;;;;;;;17.92;14.75;;;1.40;99.90;;;;;;5061351;28;20421;-81
2021/12/03 05:28:42;;;;;;;27.00;15.93;;;1.30;99.90;;;;;;5067373;28;20119;-75
2021/12/03 05:31:08;;;;;;;18.60;14.57;;;1.30;99.90;;;;;;5061956;28;20556;-81
2021/12/03 05:33:34;;;;;;;20.35;15.55;;;1.50;99.90;;;;;;5051491;28;20147;-81
2021/12/03 05:35:59;;;;;;;22.40;16.20;;;1.40;99.90;;;;;;5068869;28;20545;-81
2021/12/03 05:38:25;;;;;;;28.48;16.70;;;1.20;99.90;;;;;;5068715;28;20044;-81
2021/12/03 05:40:51;;;;;;;25.17;16.20;;;1.30;99.90;;;;;;5051710;28;20040;-80
2021/12/03 05:43:18;;;;;;;21.90;15.18;;;1.40;99.90;;;;;;5069743;28;20044;-81
2021/12/03 05:45:44;;;;;;;22.95;15.82;;;1.30;99.90;;;;;;5061240;28;20094;-81
2021/12/03 05:48:11;;;;;;;24.98;15.55;;;1.50;99.90;;;;;;5069723;28;20076;-81
2021/12/03 05:50:37;;;;;;;23.17;17.02;;;1.30;99.90;;;;;;5069388;28;20076;-81
2021/12/03 05:53:03;;;;;;;21.98;16.30;;;1.40;99.90;;;;;;5068778;28;20511;-81
2021/12/03 05:55:29;;;;;;;26.63;18.67;;;1.50;99.90;;;;;;5068997;28;20067;-82
2021/12/03 05:57:55;;;;;;;26.17;16.13;;;1.40;99.90;;;;;;5069661;28;20037;-81
2021/12/03 06:00:25;;;;;;;25.10;18.20;;;1.50;99.90;;;;;;5057858;28;20040;-82
2021/12/03 06:02:52;;;;;;;21.00;17.75;;;1.50;99.90;;;;;;5052232;28;20102;-81
2021/12/03 06:05:19;;;;;;;22.33;16.20;;;1.40;99.90;;;;;;5037486;28;20131;-82
2021/12/03 06:07:45;;;;;;;23.95;18.15;;;1.50;99.90;;;;;;5051043;28;20052;-81
2021/12/03 06:10:11;;;;;;;30.17;17.83;;;1.60;99.90;;;;;;5049174;28;20051;-81
2021/12/03 06:12:36;;;;;;;28.35;19.92;;;1.40;99.90;;;;;;5069282;28;20044;-81
2021/12/03 06:15:02;;;;;;;27.83;18.98;;;1.50;99.90;;;;;;5068893;28;20764;-79
2021/12/03 06:17:28;;;;;;;24.52;17.92;;;1.80;99.90;;;;;;5049541;28;20527;-81
2021/12/03 06:19:53;;;;;;;30.33;19.30;;;1.70;99.90;;;;;;5047398;28;20502;-74
2021/12/03 06:22:19;;;;;;;23.58;17.80;;;2.00;99.90;;;;;;5066058;28;20082;-81
2021/12/03 06:24:44;;;;;;;29.17;18.65;;;1.90;99.90;;;;;;5068797;28;20048;-81
2021/12/03 06:27:10;;;;;;;35.92;19.02;;;2.10;99.90;;;;;;5068592;28;20520;-81
2021/12/03 06:29:36;;;;;;;27.77;18.92;;;2.20;99.90;;;;;;5065210;28;20048;-80
2021/12/03 06:32:02;;;;;;;28.10;18.00;;;2.00;99.90;;;;;;5069254;28;20049;-75
2021/12/03 06:34:27;;;;;;;22.95;17.08;;;2.20;99.90;;;;;;5068081;28;20119;-82
2021/12/03 06:36:53;;;;;;;26.42;16.83;;;2.20;99.90;;;;;;5067875;28;20111;-80
2021/12/03 06:39:18;;;;;;;25.00;15.30;;;2.20;99.90;;;;;;5070236;28;20032;-79
2021/12/03 06:41:44;;;;;;;18.30;13.68;;;2.30;99.90;;;;;;5030479;28;20536;-78
2021/12/03 06:44:10;;;;;;;29.75;16.75;;;2.10;99.90;;;;;;5057467;28;20402;-81
2021/12/03 06:46:36;;;;;;;25.30;15.70;;;2.10;99.90;;;;;;5066521;28;20059;-81
2021/12/03 06:49:03;;;;;;;24.30;14.73;;;2.10;99.90;;;;;;5067255;28;20040;-78
2021/12/03 06:51:30;;;;;;;29.45;15.48;;;2.30;99.90;;;;;;5066825;28;20037;-81
2021/12/03 06:54:03;;;;;;;21.88;13.98;;;2.10;99.90;;;;;;5067242;28;20115;-82
2021/12/03 06:56:43;;;;;;;18.70;15.23;;;2.10;99.90;;;;;;5066760;28;20414;-82
2021/12/03 06:59:10;;;;;;;21.92;12.80;;;2.30;99.90;;;;;;5066124;28;20045;-82
2021/12/03 07:01:35;;;;;;;20.13;12.35;;;2.10;99.90;;;;;;5067629;28;20066;-83
2021/12/03 07:04:01;;;;;;;18.33;11.38;;;2.20;99.90;;;;;;5065892;28;20478;-83
2021/12/03 07:06:27;;;;;;;20.20;10.85;;;2.40;99.90;;;;;;5050911;28;20550;-83
2021/12/03 07:08:52;;;;;;;15.20;9.55;;;2.20;99.90;;;;;;5036962;28;20049;-83
2021/12/03 07:11:18;;;;;;;13.70;7.85;;;2.40;99.90;;;;;;5033779;28;20628;-81
2021/12/03 07:13:44;;;;;;;16.88;10.00;;;2.50;99.90;;;;;;5051909;28;20131;-81
2021/12/03 07:16:09;;;;;;;14.38;8.85;;;2.50;99.90;;;;;;5068366;28;20067;-82
2021/12/03 07:18:35;;;;;;;14.45;6.85;;;2.50;99.90;;;;;;5034041;28;20032;-82
2021/12/03 07:21:01;;;;;;;14.95;7.55;;;2.40;99.90;;;;;;5068507;28;20041;-83
2021/12/03 07:23:27;;;;;;;17.48;6.28;;;2.40;99.90;;;;;;5061268;28;20044;-83
2021/12/03 07:25:53;;;;;;;10.48;6.93;;;2.60;99.90;;;;;;5064587;28;20072;-83
2021/12/03 07:28:18;;;;;;;14.00;7.78;;;2.40;99.90;;;;;;5065683;28;20120;-83
2021/12/03 07:30:44;;;;;;;14.48;7.28;;;2.60;99.90;;;;;;5074216;28;20040;-81
2021/12/03 07:33:13;;;;;;;11.98;6.45;;;2.60;99.90;;;;;;5080135;28;20466;-82
2021/12/03 07:35:40;;;;;;;12.40;7.18;;;2.50;99.90;;;;;;5054963;28;20048;-83
2021/12/03 07:38:06;;;;;;;12.38;7.25;;;2.60;99.90;;;;;;5071856;28;20097;-83
2021/12/03 07:40:31;;;;;;;13.02;6.40;;;2.40;99.90;;;;;;5071911;28;20115;-83
2021/12/03 07:42:57;;;;;;;25.38;7.30;;;2.50;99.90;;;;;;5071372;28;20123;-81
2021/12/03 07:45:22;;;;;;;16.35;6.95;;;2.50;99.90;;;;;;5052283;28;20043;-84
2021/12/03 07:47:48;;;;;;;12.55;4.95;;;2.70;99.90;;;;;;5053622;28;20206;-82
2021/12/03 07:50:14;;;;;;;15.93;6.25;;;2.50;99.90;;;;;;5052417;28;20057;-80
2021/12/03 07:52:40;;;;;;;15.13;6.43;;;2.50;99.90;;;;;;5053137;28;20048;-82
2021/12/03 07:55:06;;;;;;;10.23;6.03;;;2.70;99.90;;;;;;5070010;28;20371;-81
2021/12/03 07:57:32;;;;;;;15.23;4.88;;;2.60;99.90;;;;;;5071244;28;20127;-84
2021/12/03 07:59:58;;;;;;;18.20;7.53;;;2.50;99.90;;;;;;5053716;28;20612;-84
2021/12/03 08:02:24;;;;;;;11.43;5.68;;;2.80;99.90;;;;;;5053144;28;20079;-84
2021/12/03 08:04:50;;;;;;;9.85;5.72;;;2.60;99.90;;;;;;5070341;28;20144;-83
2021/12/03 08:07:15;;;;;;;8.27;3.97;;;2.70;99.90;;;;;;5052116;28;20470;-83
2021/12/03 08:09:41;;;;;;;21.38;5.38;;;2.70;99.90;;;;;;5072443;28;20045;-84
2021/12/03 08:12:07;;;;;;;12.93;4.03;;;2.80;99.90;;;;;;5052632;28;20502;-83
2021/12/03 08:14:33;;;;;;;10.98;5.22;;;2.80;99.90;;;;;;5052280;28;20056;-85
2021/12/03 08:16:58;;;;;;;14.63;6.03;;;2.80;99.90;;;;;;5070870;28;20509;-84
2021/12/03 08:19:24;;;;;;;8.65;4.30;;;2.80;99.90;;;;;;5069056;28;20055;-85
2021/12/03 08:21:50;;;;;;;15.10;6.30;;;2.80;99.90;;;;;;5053727;28;20463;-85
2021/12/03 08:24:16;;;;;;;11.60;4.28;;;2.80;99.90;;;;;;5052011;28;20067;-86
2021/12/03 08:26:41;;;;;;;11.23;5.28;;;2.90;99.90;;;;;;5068708;28;20048;-85
2021/12/03 08:29:07;;;;;;;9.43;3.58;;;2.70;99.90;;;;;;5055179;28;20052;-85
2021/12/03 08:31:33;;;;;;;11.02;5.03;;;2.80;99.90;;;;;;5074816;28;20052;-85
2021/12/03 08:33:59;;;;;;;9.13;4.75;;;2.80;99.90;;;;;;5057667;28;20086;-84
2021/12/03 08:36:24;;;;;;;15.05;5.93;;;2.90;99.90;;;;;;5052004;28;20108;-85
2021/12/03 08:38:50;;;;;;;9.18;5.30;;;2.80;99.90;;;;;;5083805;28;20131;-84
2021/12/03 08:41:19;;;;;;;15.23;6.47;;;3.00;99.90;;;;;;5084874;28;20028;-84
2021/12/03 08:43:49;;;;;;;13.98;5.22;;;2.90;99.90;;;;;;5061609;28;20040;-82
2021/12/03 08:46:24;;;;;;;;;;;2.90;99.90;;;;;;5052473;28;20051;-78
2021/12/03 08:48:49;;;;;;;12.85;6.32;;;2.90;99.90;;;;;;5047899;28;19921;-79
2021/12/03 08:57:01;;;;;;;15.57;6.97;;;3.10;99.90;;;;;;5062194;28;20088;-83
2021/12/03 08:59:26;;;;;;;14.27;6.82;;;2.90;99.90;;;;;;5069885;28;20064;-83
2021/12/03 09:01:52;;;;;;;15.60;7.57;;;3.10;99.90;;;;;;5070009;28;20080;-82
2021/12/03 09:04:18;;;;;;;21.80;7.60;;;3.10;99.90;;;;;;5061696;28;20036;-83
2021/12/03 09:06:43;;;;;;;18.40;9.90;;;3.10;99.90;;;;;;5066946;28;20051;-81
2021/12/03 09:09:09;;;;;;;24.45;8.63;;;3.00;99.90;;;;;;5048716;28;20045;-79
2021/12/03 09:11:36;;;;;;;17.20;7.28;;;3.20;99.90;;;;;;5043490;28;20135;-83
2021/12/03 09:14:06;;;;;;;15.43;7.45;;;3.30;99.90;;;;;;5049062;28;20484;-74
2021/12/03 09:16:32;;;;;;;15.02;9.25;;;3.30;99.90;;;;;;5041704;28;21240;-84
2021/12/03 09:19:00;;;;;;;15.05;7.80;;;3.30;99.90;;;;;;5040179;28;20041;-83
2021/12/03 09:21:28;;;;;;;21.30;9.55;;;3.40;99.90;;;;;;5043179;28;20138;-83
2021/12/03 09:24:14;;;;;;;17.90;9.13;;;3.30;99.90;;;;;;5050272;28;20071;-82
2021/12/03 09:26:42;;;;;;;16.63;9.40;;;3.30;99.90;;;;;;5066100;28;20110;-83
2021/12/03 09:29:11;;;;;;;24.95;10.15;;;3.40;99.90;;;;;;5047999;28;20044;-82
2021/12/03 09:31:41;;;;;;;19.63;8.52;;;3.50;99.90;;;;;;5051515;28;20066;-83
2021/12/03 09:34:09;;;;;;;19.13;8.32;;;3.50;99.90;;;;;;5048593;28;20079;-83
2021/12/03 09:36:39;;;;;;;19.90;8.93;;;3.40;99.90;;;;;;5039203;28;20067;-82
2021/12/03 09:39:06;;;;;;;17.33;8.82;;;3.40;99.90;;;;;;5074498;28;20120;-82
2021/12/03 09:41:31;;;;;;;16.23;8.43;;;3.50;99.90;;;;;;5064688;28;20390;-81
2021/12/03 09:43:57;;;;;;;20.40;7.85;;;3.50;99.90;;;;;;5069814;28;20043;-83
2021/12/03 09:46:24;;;;;;;27.60;9.15;;;3.60;99.90;;;;;;5069848;28;20041;-83
2021/12/03 09:51:27;;;;;;;16.35;8.38;;;3.60;99.90;;;;;;5068020;28;20131;-82
2021/12/03 09:56:31;;;;;;;15.85;7.35;;;3.60;99.90;;;;;;5064402;28;20438;-81
2021/12/03 09:59:29;;;;;;;18.08;8.18;;;3.60;99.90;;;;;;5069466;28;20098;-81
2021/12/03 10:42:21;;;;;;;14.63;6.15;;;3.80;99.90;;;;;;5067408;28;20123;-79
2021/12/03 10:47:54;;;;;;;15.52;5.13;;;3.80;99.90;;;;;;5068132;28;20433;-80
2021/12/03 10:50:47;;;;;;;14.05;6.10;;;3.80;99.90;;;;;;5048774;28;20064;-80
2021/12/03 11:01:21;;;;;;;20.27;5.07;;;3.80;99.90;;;;;;5060898;28;20118;-81
2021/12/03 11:20:18;;;;;;;21.45;5.35;;;3.80;99.90;;;;;;5040065;28;20153;-81
2021/12/03 11:50:57;;;;;;;15.07;5.53;;;3.50;99.90;;;;;;5054551;28;20437;-79
2021/12/03 12:01:42;;;;;;;13.77;4.53;;;3.60;99.90;;;;;;5054088;28;20048;-76
2021/12/03 12:23:03;;;;;;;20.45;5.68;;;3.70;99.90;;;;;;5067897;28;20048;-81
2021/12/03 13:14:49;;;;;;;17.48;6.55;;;3.80;99.90;;;;;;5069234;28;20048;-80
2021/12/03 14:03:43;;;;;;;6.95;4.40;;;4.20;99.90;;;;;;5081994;28;20044;-81
2021/12/03 14:35:14;;;;;;;7.97;4.97;;;4.30;99.90;;;;;;5098862;28;20071;-82
2021/12/03 14:39:52;;;;;;;10.57;4.28;;;4.40;99.90;;;;;;5087336;28;20048;-82
2021/12/03 14:45:14;;;;;;;11.52;4.90;;;4.40;99.90;;;;;;5102804;28;20039;-83
2021/12/03 14:50:35;;;;;;;10.68;4.32;;;4.40;99.90;;;;;;5097310;28;20413;-84
2021/12/03 14:55:32;;;;;;;13.00;5.00;;;4.40;99.90;;;;;;5068258;28;20403;-83
2021/12/03 14:58:27;;;;;;;6.63;3.72;;;4.40;99.90;;;;;;5100033;28;20115;-83
2021/12/03 15:00:56;;;;;;;7.72;4.32;;;4.40;99.90;;;;;;5094952;28;20513;-77
2021/12/03 15:08:31;;;;;;;8.68;5.88;;;4.20;99.90;;;;;;5072073;28;20485;-84
2021/12/03 15:11:42;;;;;;;6.32;5.07;;;4.30;99.90;;;;;;5093710;28;20417;-84
2021/12/03 16:03:30;;;;;;;12.98;11.10;;;4.40;99.90;;;;;;5063613;28;20044;-81
2021/12/03 16:04:34;;;;;;;17.00;11.70;;;4.20;99.90;;;;;;5050850;28;20398;-83
2021/12/03 16:20:15;;;;;;;15.98;12.95;;;4.20;99.90;;;;;;5083440;28;20121;-82
2021/12/03 16:22:49;;;;;;;15.32;13.45;;;4.20;99.90;;;;;;5062515;28;20087;-84
2021/12/03 16:25:27;;;;;;;20.55;16.23;;;4.30;99.90;;;;;;5053278;28;20127;-79
2021/12/03 16:47:03;;;;;;;16.65;15.00;;;4.20;99.90;;;;;;5083396;28;20041;-83
2021/12/03 16:52:19;;;;;;;14.88;12.18;;;4.30;99.90;;;;;;5063180;28;20136;-78
2021/12/03 16:54:50;;;;;;;14.10;12.60;;;4.20;99.90;;;;;;5079146;28;20047;-79
2021/12/03 16:57:17;;;;;;;18.70;15.38;;;4.10;99.90;;;;;;5087778;28;20104;-80
2021/12/03 16:59:45;;;;;;;15.23;13.65;;;4.20;99.90;;;;;;5057781;28;20126;-78
2021/12/03 17:02:17;;;;;;;18.00;13.50;;;4.10;99.90;;;;;;5066263;28;20040;-81
2021/12/03 17:05:00;;;;;;;15.90;13.88;;;4.20;99.90;;;;;;5082730;28;20111;-80
2021/12/03 17:15:56;;;;;;;18.77;14.93;;;4.10;99.90;;;;;;5052008;28;20055;-80
2021/12/03 17:51:14;;;;;;;19.98;15.32;;;4.50;99.90;;;;;;5050555;28;20414;-79
2021/12/03 17:56:20;;;;;;;20.13;16.67;;;4.30;99.90;;;;;;5080703;28;20402;-78
2021/12/03 17:58:50;;;;;;;21.20;17.40;;;4.30;99.90;;;;;;5060772;28;20040;-78
2021/12/03 18:01:21;;;;;;;20.98;17.05;;;4.50;99.90;;;;;;5069288;28;20044;-80
2021/12/03 18:12:10;;;;;;;28.98;18.60;;;4.40;99.90;;;;;;5069391;28;20062;-81
2021/12/03 18:17:48;;;;;;;29.85;19.95;;;4.60;99.90;;;;;;5064215;28;20066;-83
2021/12/03 18:45:17;;;;;;;27.42;19.92;;;4.60;99.90;;;;;;5042385;28;20187;-80
2021/12/03 18:55:55;;;;;;;26.50;20.23;;;4.50;99.90;;;;;;5050297;28;20049;-81
2021/12/03 18:58:30;;;;;;;27.15;22.70;;;4.60;99.90;;;;;;5050630;28;20040;-80
2021/12/03 19:00:57;;;;;;;27.80;23.60;;;4.50;99.90;;;;;;5073063;28;20102;-80
2021/12/03 19:06:09;;;;;;;30.70;22.25;;;4.50;99.90;;;;;;5072064;28;20049;-80
2021/12/03 19:08:45;;;;;;;32.88;24.90;;;4.70;99.90;;;;;;5039722;28;20064;-79
2021/12/03 19:13:41;;;;;;;31.27;24.15;;;4.70;99.90;;;;;;5071499;28;20052;-80
2021/12/03 19:16:13;;;;;;;33.30;25.33;;;4.50;99.90;;;;;;5066017;28;20051;-80
2021/12/03 19:18:43;;;;;;;33.83;24.73;;;4.60;99.90;;;;;;5085156;28;20040;-79
2021/12/03 19:21:13;;;;;;;36.20;25.98;;;4.60;99.90;;;;;;5079389;28;20040;-82
2021/12/03 19:23:38;;;;;;;31.33;25.43;;;4.60;99.90;;;;;;5071003;28;20466;-82
2021/12/03 19:26:04;;;;;;;34.08;25.15;;;4.60;99.90;;;;;;5073361;28;20109;-82
2021/12/03 19:28:31;;;;;;;39.47;28.73;;;4.50;99.90;;;;;;5054303;28;20475;-80
2021/12/03 19:30:58;;;;;;;44.88;31.02;;;4.70;99.90;;;;;;5059660;28;20052;-81
2021/12/03 19:33:25;;;;;;;41.90;31.70;;;4.70;99.90;;;;;;5096086;28;20040;-80
2021/12/03 19:35:51;;;;;;;38.50;27.92;;;4.70;99.90;;;;;;5080741;28;20037;-81
2021/12/03 19:38:18;;;;;;;40.22;29.88;;;4.60;99.90;;;;;;5080639;28;20128;-82
2021/12/03 19:40:57;;;;;;;40.30;29.75;;;4.80;99.90;;;;;;5075910;28;20103;-81
2021/12/03 19:43:33;;;;;;;37.40;28.08;;;4.80;99.90;;;;;;5074546;28;20040;-80
2021/12/03 19:46:02;;;;;;;46.22;31.13;;;4.80;99.90;;;;;;5083788;28;20048;-81
2021/12/03 19:48:48;;;;;;;41.75;31.13;;;4.70;99.90;;;;;;5072230;28;20047;-82
2021/12/03 19:51:15;;;;;;;43.15;31.92;;;4.60;99.90;;;;;;5075399;28;20455;-80
2021/12/03 19:54:04;;;;;;;46.30;31.92;;;4.80;99.90;;;;;;5087108;28;20041;-81
2021/12/03 19:56:31;;;;;;;40.40;30.23;;;4.70;99.90;;;;;;5082954;28;20044;-82
2021/12/03 19:58:58;;;;;;;41.88;30.02;;;4.60;99.90;;;;;;5056553;28;20040;-81
2021/12/03 20:01:25;;;;;;;42.45;31.05;;;4.80;99.90;;;;;;5075344;28;20490;-83
2021/12/03 20:03:53;;;;;;;43.95;31.27;;;4.70;99.90;;;;;;5071614;28;20524;-79
2021/12/03 20:06:21;;;;;;;43.78;33.10;;;4.80;99.90;;;;;;5075837;28;20119;-80
2021/12/03 20:08:51;;;;;;;48.55;33.28;;;4.60;99.90;;;;;;5082827;28;20048;-79
2021/12/03 20:11:16;;;;;;;48.10;34.00;;;4.50;99.90;;;;;;5037223;28;20074;-80
2021/12/03 20:13:46;;;;;;;44.03;33.55;;;4.70;99.90;;;;;;5088362;28;20048;-74
2021/12/03 20:18:51;;;;;;;47.05;33.80;;;4.50;99.90;;;;;;5085336;28;20063;-81
2021/12/03 20:21:18;;;;;;;49.22;33.97;;;4.60;99.90;;;;;;5085790;28;20044;-82